createdAt,value
2018-04-28T00:00:31.407Z,92.80
2018-04-28T00:02:59.665Z,92.90
2018-04-28T00:05:27.116Z,92.70
2018-04-28T00:07:54.650Z,92.80
2018-04-28T00:10:22.021Z,92.70
2018-04-28T00:12:50.845Z,92.60
2018-04-28T00:15:18.298Z,92.60
2018-04-28T00:17:45.752Z,92.60
2018-04-28T00:20:14.208Z,92.70
2018-04-28T00:22:44.140Z,92.30
2018-04-28T00:25:19.053Z,92.30
2018-04-28T00:31:19.987Z,92.60
2018-04-28T00:33:55.037Z,92.60
2018-04-28T00:36:26.090Z,92.50
2018-04-28T00:38:58.121Z,92.40
2018-04-28T00:41:25.611Z,92.40
2018-04-28T00:43:53.873Z,92.50
2018-04-28T00:46:23.094Z,92.30
2018-04-28T00:49:00.359Z,92.10
2018-04-28T00:51:37.018Z,92.40
2018-04-28T00:54:12.228Z,92.40
2018-04-28T00:56:40.466Z,92.50
2018-04-28T01:02:09.498Z,92.50
2018-04-28T01:04:46.169Z,92.50
2018-04-28T01:07:18.141Z,92.60
2018-04-28T01:12:52.296Z,93.10
2018-04-28T01:15:21.591Z,92.90
2018-04-28T01:17:59.851Z,93.30
2018-04-28T01:20:28.241Z,93.30
2018-04-28T01:22:56.571Z,93.20
2018-04-28T01:25:42.475Z,93.10
2018-04-28T01:28:20.544Z,93.20
2018-04-28T01:30:56.723Z,93.10
2018-04-28T01:33:42.271Z,93.40
2018-04-28T01:39:19.806Z,93.20
2018-04-28T01:41:55.936Z,93.30
2018-04-28T01:44:27.022Z,93.60
2018-04-28T01:46:56.335Z,93.50
2018-04-28T01:52:37.034Z,93.40
2018-04-28T01:55:15.907Z,93.60
2018-04-28T01:57:53.899Z,93.40
2018-04-28T02:00:24.001Z,93.30
2018-04-28T02:06:05.282Z,93.00
2018-04-28T02:08:32.767Z,93.00
2018-04-28T02:11:00.249Z,93.10
2018-04-28T02:13:31.592Z,93.60
2018-04-28T02:16:02.820Z,94.20
2018-04-28T02:18:37.857Z,94.50
2018-04-28T02:21:11.618Z,94.50
2018-04-28T02:24:00.596Z,94.60
2018-04-28T02:26:40.576Z,94.60
2018-04-28T02:29:36.457Z,94.60
2018-04-28T02:32:18.836Z,94.40
2018-04-28T02:34:49.186Z,94.30
2018-04-28T02:37:26.627Z,94.00
2018-04-28T02:40:01.023Z,93.90
2018-04-28T02:42:53.458Z,93.90
2018-04-28T02:51:36.866Z,94.30
2018-04-28T02:54:08.106Z,94.10
2018-04-28T02:56:40.586Z,94.60
2018-04-28T02:59:10.663Z,94.50
2018-04-28T03:01:42.610Z,94.50
2018-04-28T03:04:10.831Z,94.60
2018-04-28T03:06:39.237Z,95.00
2018-04-28T03:09:07.503Z,94.90
2018-04-28T03:11:35.785Z,94.80
2018-04-28T03:14:04.206Z,94.50
2018-04-28T03:16:40.109Z,94.30
2018-04-28T03:19:18.233Z,94.40
2018-04-28T03:21:48.575Z,94.70
2018-04-28T03:27:20.634Z,94.50
2018-04-28T03:29:54.828Z,94.60
2018-04-28T03:32:36.070Z,94.40
2018-04-28T03:35:07.071Z,94.50
2018-04-28T03:37:36.362Z,94.40
2018-04-28T03:42:59.336Z,94.20
2018-04-28T03:45:44.072Z,94.00
2018-04-28T03:48:29.969Z,94.00
2018-04-28T03:51:03.367Z,94.10
2018-04-28T03:53:32.476Z,94.10
2018-04-28T03:56:01.476Z,94.10
2018-04-28T03:58:40.815Z,94.40
2018-04-28T04:01:20.046Z,94.30
2018-04-28T04:03:59.342Z,94.20
2018-04-28T04:06:38.445Z,94.20
2018-04-28T04:09:07.791Z,94.30
2018-04-28T04:11:42.774Z,94.50
2018-04-28T04:14:17.090Z,94.80
2018-04-28T04:20:05.941Z,94.50
2018-04-28T04:25:42.791Z,94.50
2018-04-28T04:28:12.199Z,94.10
2018-04-28T04:30:45.568Z,93.90
2018-04-28T04:36:16.071Z,93.40
2018-04-28T04:38:45.926Z,92.50
2018-04-28T04:44:48.829Z,92.00
2018-04-28T04:47:43.111Z,92.00
2018-04-28T04:53:37.384Z,92.10
2018-04-28T04:56:14.668Z,91.50
2018-04-28T04:58:46.758Z,91.40
2018-04-28T05:01:25.419Z,91.80
2018-04-28T05:07:11.970Z,88.20
2018-04-28T05:12:47.016Z,84.90
2018-04-28T05:15:26.471Z,83.90
2018-04-28T05:18:05.979Z,82.20
2018-04-28T05:23:41.010Z,81.10
2018-04-28T05:29:22.759Z,77.90
2018-04-28T05:31:56.042Z,78.20
2018-04-28T05:34:29.015Z,76.20
2018-04-28T05:37:06.385Z,75.80
2018-04-28T05:39:44.953Z,73.50
2018-04-28T05:45:55.697Z,72.90
2018-04-28T05:48:29.070Z,72.50
2018-04-28T05:54:00.889Z,70.40
2018-04-28T05:56:40.053Z,70.20
2018-04-28T05:59:16.136Z,69.70
2018-04-28T06:05:07.779Z,69.20
2018-04-28T06:07:44.210Z,68.10
2018-04-28T06:10:17.509Z,66.40
2018-04-28T06:12:56.792Z,66.30
2018-04-28T06:15:30.194Z,67.30
2018-04-28T06:20:55.846Z,65.70
2018-04-28T06:23:23.349Z,66.40
2018-04-28T06:25:51.219Z,67.70
2018-04-28T06:28:19.689Z,67.30
2018-04-28T06:30:47.207Z,66.70
2018-04-28T06:33:14.774Z,64.60
2018-04-28T06:35:42.274Z,66.60
2018-04-28T06:40:43.737Z,66.10
2018-04-28T06:43:11.272Z,63.60
2018-04-28T06:45:38.833Z,63.90
2018-04-28T06:48:06.375Z,62.60
2018-04-28T06:50:33.946Z,62.50
2018-04-28T06:53:01.468Z,63.50
2018-04-28T06:55:29.027Z,61.90
2018-04-28T06:57:56.569Z,61.90
2018-04-28T07:00:24.136Z,61.70
2018-04-28T07:02:51.666Z,61.60
2018-04-28T07:05:19.169Z,61.20
2018-04-28T07:07:46.667Z,61.20
2018-04-28T07:10:14.184Z,61.50
2018-04-28T07:12:41.846Z,60.80
2018-04-28T07:15:09.376Z,62.00
2018-04-28T07:17:37.650Z,60.20
2018-04-28T07:20:05.190Z,60.20
2018-04-28T07:22:32.727Z,60.40
2018-04-28T07:25:00.266Z,60.90
2018-04-28T07:27:27.791Z,61.10
2018-04-28T07:29:56.080Z,61.90
2018-04-28T07:32:23.620Z,61.90
2018-04-28T07:34:51.178Z,62.20
2018-04-28T07:37:19.458Z,61.50
2018-04-28T07:39:47.801Z,62.50
2018-04-28T07:42:15.407Z,62.40
2018-04-28T07:44:42.966Z,59.60
2018-04-28T07:47:10.501Z,59.70
2018-04-28T07:49:38.012Z,58.80
2018-04-28T07:52:05.504Z,58.60
2018-04-28T07:54:32.970Z,59.10
2018-04-28T07:57:00.453Z,58.60
2018-04-28T07:59:28.043Z,59.10
2018-04-28T08:01:55.564Z,59.40
2018-04-28T08:04:23.403Z,59.30
2018-04-28T08:06:51.679Z,59.50
2018-04-28T08:09:19.934Z,60.10
2018-04-28T08:11:47.439Z,60.00
2018-04-28T08:14:14.965Z,59.40
2018-04-28T08:16:42.558Z,58.70
2018-04-28T08:19:10.066Z,58.70
2018-04-28T08:21:37.547Z,59.40
2018-04-28T08:24:05.026Z,58.20
2018-04-28T08:26:32.582Z,57.20
2018-04-28T08:29:00.070Z,58.00
2018-04-28T08:31:27.588Z,58.10
2018-04-28T08:33:55.060Z,59.40
2018-04-28T08:36:22.547Z,59.70
2018-04-28T08:38:50.035Z,59.60
2018-04-28T08:41:17.529Z,59.10
2018-04-28T08:43:45.027Z,59.10
2018-04-28T08:46:13.302Z,58.20
2018-04-28T08:48:40.785Z,58.20
2018-04-28T08:51:08.270Z,57.80
2018-04-28T08:53:35.741Z,58.10
2018-04-28T08:56:03.217Z,58.60
2018-04-28T08:58:30.707Z,57.80
2018-04-28T09:00:58.229Z,57.10
2018-04-28T09:03:25.705Z,56.50
2018-04-28T09:05:53.964Z,56.50
2018-04-28T09:08:21.437Z,56.30
2018-04-28T09:10:48.938Z,57.10
2018-04-28T09:13:16.431Z,57.40
2018-04-28T09:15:43.917Z,56.60
2018-04-28T09:18:11.430Z,57.60
2018-04-28T09:20:38.893Z,57.00
2018-04-28T09:23:06.398Z,56.90
2018-04-28T09:25:33.885Z,57.40
2018-04-28T09:28:01.392Z,57.90
2018-04-28T09:30:28.885Z,56.90
2018-04-28T09:32:56.381Z,56.70
2018-04-28T09:35:23.853Z,56.90
2018-04-28T09:37:52.112Z,57.50
2018-04-28T09:40:19.610Z,57.60
2018-04-28T09:42:47.107Z,57.90
2018-04-28T09:45:14.604Z,57.10
2018-04-28T09:47:42.097Z,56.60
2018-04-28T09:50:09.649Z,56.70
2018-04-28T09:52:37.192Z,57.00
2018-04-28T09:55:04.739Z,56.60
2018-04-28T09:57:32.986Z,57.20
2018-04-28T10:00:12.287Z,57.20
2018-04-28T10:02:39.765Z,56.50
2018-04-28T10:05:08.014Z,57.10
2018-04-28T10:07:35.481Z,56.60
2018-04-28T10:10:02.966Z,56.20
2018-04-28T10:12:30.432Z,56.20
2018-04-28T10:14:57.915Z,56.10
2018-04-28T10:17:25.399Z,55.90
2018-04-28T10:19:52.869Z,56.20
2018-04-28T10:22:20.368Z,56.10
2018-04-28T10:24:47.863Z,57.10
2018-04-28T10:27:15.346Z,55.80
2018-04-28T10:29:42.843Z,54.80
2018-04-28T10:32:10.343Z,56.10
2018-04-28T10:34:37.910Z,56.90
2018-04-28T10:37:05.393Z,55.90
2018-04-28T10:39:33.344Z,55.20
2018-04-28T10:42:00.901Z,55.90
2018-04-28T10:44:29.160Z,55.20
2018-04-28T10:46:56.671Z,55.20
2018-04-28T10:49:24.146Z,56.30
2018-04-28T10:51:51.654Z,55.40
2018-04-28T10:54:19.201Z,55.50
2018-04-28T10:56:46.746Z,55.30
2018-04-28T10:59:14.225Z,54.70
2018-04-28T11:01:41.750Z,55.10
2018-04-28T11:04:09.217Z,54.40
2018-04-28T11:06:36.694Z,55.70
2018-04-28T11:09:04.221Z,54.00
2018-04-28T11:11:31.768Z,54.50
2018-04-28T11:13:59.329Z,54.00
2018-04-28T11:16:26.900Z,53.30
2018-04-28T11:18:54.422Z,53.40
2018-04-28T11:21:21.911Z,53.40
2018-04-28T11:23:49.387Z,54.50
2018-04-28T11:26:16.873Z,53.30
2018-04-28T11:28:44.366Z,53.50
2018-04-28T11:31:12.630Z,53.60
2018-04-28T11:33:40.124Z,53.60
2018-04-28T11:36:08.397Z,53.20
2018-04-28T11:38:35.910Z,53.20
2018-04-28T11:41:03.436Z,54.10
2018-04-28T11:43:30.980Z,53.50
2018-04-28T11:45:59.416Z,54.40
2018-04-28T11:48:26.940Z,52.70
2018-04-28T11:50:54.532Z,52.70
2018-04-28T11:53:22.936Z,52.40
2018-04-28T11:55:50.462Z,52.70
2018-04-28T11:58:17.964Z,52.40
2018-04-28T12:00:46.270Z,52.60
2018-04-28T12:03:14.259Z,52.60
2018-04-28T12:05:44.195Z,53.10
2018-04-28T12:08:13.302Z,52.00
2018-04-28T12:10:40.876Z,52.20
2018-04-28T12:13:08.663Z,52.20
2018-04-28T12:15:36.215Z,52.20
2018-04-28T12:18:04.578Z,51.50
2018-04-28T12:20:37.434Z,51.80
2018-04-28T12:23:05.088Z,52.90
2018-04-28T12:25:32.620Z,51.50
2018-04-28T12:28:00.124Z,51.60
2018-04-28T12:30:27.617Z,51.70
2018-04-28T12:32:55.141Z,51.60
2018-04-28T12:35:23.392Z,52.50
2018-04-28T12:37:50.940Z,52.50
2018-04-28T12:40:19.775Z,53.10
2018-04-28T12:42:47.276Z,51.70
2018-04-28T12:45:14.835Z,51.60
2018-04-28T12:48:04.901Z,51.70
2018-04-28T12:50:32.387Z,51.30
2018-04-28T12:52:59.822Z,52.10
2018-04-28T12:55:27.275Z,52.10
2018-04-28T12:57:54.713Z,50.40
2018-04-28T13:00:22.931Z,51.90
2018-04-28T13:02:50.381Z,51.90
2018-04-28T13:05:17.839Z,50.90
2018-04-28T13:07:45.301Z,51.80
2018-04-28T13:10:12.741Z,51.50
2018-04-28T13:12:40.196Z,51.50
2018-04-28T13:15:07.657Z,50.90
2018-04-28T13:17:35.103Z,50.80
2018-04-28T13:20:02.554Z,51.40
2018-04-28T13:22:30.004Z,51.30
2018-04-28T13:24:58.225Z,50.70
2018-04-28T13:27:25.677Z,50.70
2018-04-28T13:29:53.125Z,50.10
2018-04-28T13:32:20.590Z,49.90
2018-04-28T13:34:48.041Z,49.80
2018-04-28T13:37:15.522Z,50.20
2018-04-28T13:39:42.976Z,49.60
2018-04-28T13:42:10.418Z,49.00
2018-04-28T13:44:37.882Z,49.00
2018-04-28T13:47:05.329Z,49.60
2018-04-28T13:49:32.780Z,48.90
2018-04-28T13:52:00.241Z,49.80
2018-04-28T13:54:27.678Z,50.00
2018-04-28T13:56:55.126Z,48.30
2018-04-28T13:59:22.570Z,48.60
2018-04-28T14:01:50.783Z,48.20
2018-04-28T14:04:18.230Z,48.10
2018-04-28T14:06:45.694Z,48.30
2018-04-28T14:09:13.146Z,48.70
2018-04-28T14:11:40.598Z,49.50
2018-04-28T14:14:08.040Z,49.80
2018-04-28T14:16:35.491Z,50.60
2018-04-28T14:19:03.711Z,50.50
2018-04-28T14:21:31.174Z,50.50
2018-04-28T14:23:58.631Z,50.20
2018-04-28T14:26:26.071Z,50.40
2018-04-28T14:28:53.533Z,50.50
2018-04-28T14:31:20.991Z,50.40
2018-04-28T14:33:48.435Z,49.20
2018-04-28T14:36:15.926Z,49.30
2018-04-28T14:38:43.331Z,48.80
2018-04-28T14:41:10.786Z,49.00
2018-04-28T14:43:38.234Z,48.90
2018-04-28T14:46:06.461Z,48.40
2018-04-28T14:48:33.902Z,48.40
2018-04-28T14:51:01.364Z,48.20
2018-04-28T14:53:28.814Z,48.30
2018-04-28T14:55:56.255Z,47.80
2018-04-28T14:58:23.711Z,48.80
2018-04-28T15:00:51.162Z,48.00
2018-04-28T15:03:18.610Z,47.90
2018-04-28T15:05:46.063Z,48.60
2018-04-28T15:08:31.127Z,48.70
2018-04-28T15:10:59.351Z,48.70
2018-04-28T15:13:26.810Z,48.70
2018-04-28T15:15:54.246Z,48.00
2018-04-28T15:18:21.701Z,48.00
2018-04-28T15:20:49.146Z,48.70
2018-04-28T15:23:16.621Z,49.60
2018-04-28T15:25:44.075Z,49.00
2018-04-28T15:28:11.531Z,48.50
2018-04-28T15:30:38.987Z,48.50
2018-04-28T15:33:06.449Z,48.80
2018-04-28T15:35:33.914Z,48.10
2018-04-28T15:38:01.383Z,49.00
2018-04-28T15:40:28.829Z,49.50
2018-04-28T15:42:56.303Z,49.20
2018-04-28T15:45:23.745Z,49.50
2018-04-28T15:47:51.217Z,49.70
2018-04-28T15:50:18.667Z,49.70
2018-04-28T15:52:46.117Z,50.10
2018-04-28T15:55:13.576Z,50.10
2018-04-28T15:57:41.021Z,50.50
2018-04-28T16:00:08.486Z,50.40
2018-04-28T16:02:35.941Z,50.10
2018-04-28T16:05:03.386Z,50.20
2018-04-28T16:07:30.844Z,50.20
2018-04-28T16:09:58.302Z,50.50
2018-04-28T16:12:25.761Z,50.00
2018-04-28T16:14:53.295Z,50.10
2018-04-28T16:17:20.673Z,50.20
2018-04-28T16:19:48.117Z,50.40
2018-04-28T16:22:15.585Z,50.40
2018-04-28T16:24:43.036Z,50.70
2018-04-28T16:27:10.489Z,50.40
2018-04-28T16:29:37.947Z,50.10
2018-04-28T16:32:05.389Z,50.00
2018-04-28T16:34:32.837Z,49.90
2018-04-28T16:37:01.062Z,49.70
2018-04-28T16:39:28.520Z,49.60
2018-04-28T16:41:55.975Z,49.40
2018-04-28T16:44:23.416Z,49.80
2018-04-28T16:46:50.897Z,50.20
2018-04-28T16:49:18.353Z,49.80
2018-04-28T16:51:45.798Z,49.40
2018-04-28T16:54:13.268Z,48.70
2018-04-28T16:56:40.722Z,48.30
2018-04-28T16:59:08.204Z,46.40
2018-04-28T17:01:35.621Z,45.70
2018-04-28T17:04:03.076Z,45.70
2018-04-28T17:06:30.582Z,44.70
2018-04-28T17:08:57.964Z,44.10
2018-04-28T17:11:25.424Z,43.70
2018-04-28T17:13:52.877Z,42.90
2018-04-28T17:16:20.338Z,42.50
2018-04-28T17:18:47.818Z,42.30
2018-04-28T17:21:15.257Z,42.10
2018-04-28T17:23:42.719Z,42.30
2018-04-28T17:26:10.172Z,42.50
2018-04-28T17:28:37.610Z,42.30
2018-04-28T17:31:05.839Z,43.90
2018-04-28T17:33:33.286Z,43.80
2018-04-28T17:36:00.733Z,44.20
2018-04-28T17:38:28.180Z,44.80
2018-04-28T17:40:55.636Z,45.00
2018-04-28T17:43:23.183Z,46.90
2018-04-28T17:45:50.557Z,47.60
2018-04-28T17:48:18.031Z,49.00
2018-04-28T17:50:45.472Z,49.50
2018-04-28T17:53:12.926Z,50.60
2018-04-28T17:55:40.386Z,51.80
2018-04-28T17:58:07.831Z,53.00
2018-04-28T18:00:35.293Z,53.80
2018-04-28T18:03:02.751Z,54.50
2018-04-28T18:05:30.205Z,55.10
2018-04-28T18:07:57.655Z,55.60
2018-04-28T18:10:25.104Z,56.40
2018-04-28T18:12:52.555Z,56.80
2018-04-28T18:15:20.774Z,57.50
2018-04-28T18:17:48.236Z,57.40
2018-04-28T18:20:15.706Z,58.80
2018-04-28T18:22:43.149Z,59.10
2018-04-28T18:25:10.605Z,59.50
2018-04-28T18:27:38.053Z,59.50
2018-04-28T18:30:05.522Z,60.10
2018-04-28T18:32:33.789Z,61.30
2018-04-28T18:35:01.234Z,61.40
2018-04-28T18:37:28.696Z,62.00
2018-04-28T18:39:56.145Z,62.70
2018-04-28T18:42:23.626Z,62.40
2018-04-28T18:44:51.078Z,62.50
2018-04-28T18:47:18.532Z,62.80
2018-04-28T18:49:45.977Z,63.30
2018-04-28T18:52:13.437Z,64.00
2018-04-28T18:54:40.897Z,64.40
2018-04-28T18:57:08.355Z,64.20
2018-04-28T18:59:35.793Z,64.60
2018-04-28T19:02:03.267Z,64.60
2018-04-28T19:04:30.716Z,65.30
2018-04-28T19:06:58.169Z,65.80
2018-04-28T19:09:25.691Z,65.60
2018-04-28T19:11:53.093Z,66.40
2018-04-28T19:14:20.549Z,66.40
2018-04-28T19:16:47.992Z,66.70
2018-04-28T19:19:15.469Z,66.70
2018-04-28T19:21:42.930Z,67.00
2018-04-28T19:24:10.372Z,67.50
2018-04-28T19:26:37.845Z,67.70
2018-04-28T19:29:05.289Z,68.10
2018-04-28T19:31:32.748Z,68.40
2018-04-28T19:34:00.986Z,68.80
2018-04-28T19:36:28.437Z,68.80
2018-04-28T19:38:56.659Z,69.40
2018-04-28T19:41:24.866Z,69.40
2018-04-28T19:43:52.329Z,69.40
2018-04-28T19:46:20.583Z,71.30
2018-04-28T19:48:48.072Z,70.30
2018-04-28T19:51:15.473Z,70.80
2018-04-28T19:53:42.936Z,70.80
2018-04-28T19:56:10.382Z,71.00
2018-04-28T19:58:37.841Z,70.90
2018-04-28T20:01:05.301Z,71.20
2018-04-28T20:03:32.750Z,71.40
2018-04-28T20:06:00.205Z,72.30
2018-04-28T20:08:27.681Z,72.50
2018-04-28T20:10:55.124Z,72.30
2018-04-28T20:13:22.593Z,72.70
2018-04-28T20:15:50.044Z,72.60
2018-04-28T20:18:17.494Z,73.30
2018-04-28T20:20:44.954Z,73.20
2018-04-28T20:23:24.257Z,73.40
2018-04-28T20:25:52.502Z,73.60
2018-04-28T20:28:19.940Z,73.60
2018-04-28T20:30:47.401Z,74.60
2018-04-28T20:33:14.850Z,74.40
2018-04-28T20:35:42.317Z,74.60
2018-04-28T20:38:09.758Z,74.50
2018-04-28T20:40:37.270Z,74.90
2018-04-28T20:43:04.706Z,75.20
2018-04-28T20:45:32.145Z,75.40
2018-04-28T20:47:59.665Z,75.30
2018-04-28T20:50:27.056Z,75.50
2018-04-28T20:52:54.534Z,75.80
2018-04-28T20:55:22.026Z,76.70
2018-04-28T20:57:49.477Z,76.30
2018-04-28T21:00:16.954Z,76.90
2018-04-28T21:02:44.401Z,76.70
2018-04-28T21:05:11.860Z,76.30
2018-04-28T21:07:39.300Z,76.80
2018-04-28T21:10:07.515Z,77.00
2018-04-28T21:12:34.959Z,76.90
2018-04-28T21:15:02.421Z,77.00
2018-04-28T21:17:29.873Z,77.40
2018-04-28T21:19:57.338Z,77.60
2018-04-28T21:22:24.794Z,77.80
2018-04-28T21:24:52.253Z,77.90
2018-04-28T21:27:19.717Z,78.10
2018-04-28T21:29:47.174Z,77.80
2018-04-28T21:32:14.638Z,77.90
2018-04-28T21:34:42.103Z,77.90
2018-04-28T21:39:44.284Z,79.30
2018-04-28T21:42:11.735Z,79.30
2018-04-28T21:44:39.192Z,80.00
2018-04-28T21:47:06.662Z,80.50
2018-04-28T21:49:34.126Z,79.60
2018-04-28T21:52:01.578Z,80.00
2018-04-28T21:54:29.035Z,80.70
2018-04-28T21:56:56.499Z,81.20
2018-04-28T21:59:23.950Z,81.20
2018-04-28T22:01:51.409Z,81.30
2018-04-28T22:04:18.855Z,81.70
2018-04-28T22:06:46.326Z,81.80
2018-04-28T22:09:13.782Z,81.70
2018-04-28T22:11:41.254Z,81.60
2018-04-28T22:14:09.465Z,83.00
2018-04-28T22:16:36.919Z,82.10
2018-04-28T22:19:04.793Z,82.20
2018-04-28T22:21:32.250Z,83.40
2018-04-28T22:23:59.718Z,83.30
2018-04-28T22:26:27.198Z,84.10
2018-04-28T22:28:54.653Z,84.30
2018-04-28T22:31:22.883Z,84.00
2018-04-28T22:33:50.338Z,84.00
2018-04-28T22:36:17.810Z,84.60
2018-04-28T22:38:45.268Z,84.80
2018-04-28T22:41:12.721Z,83.90
2018-04-28T22:43:40.174Z,83.70
2018-04-28T22:46:07.620Z,84.70
2018-04-28T22:48:35.086Z,85.20
2018-04-28T22:51:02.551Z,85.30
2018-04-28T22:53:30.010Z,85.60
2018-04-28T22:55:57.475Z,85.10
2018-04-28T22:58:24.938Z,85.90
2018-04-28T23:00:52.401Z,86.70
2018-04-28T23:03:19.858Z,86.80
2018-04-28T23:05:47.321Z,87.60
2018-04-28T23:08:14.764Z,87.30
2018-04-28T23:10:42.234Z,87.10
2018-04-28T23:13:09.695Z,88.60
2018-04-28T23:15:37.144Z,88.00
2018-04-28T23:18:04.600Z,86.50
2018-04-28T23:20:32.042Z,88.00
2018-04-28T23:22:59.492Z,88.60
2018-04-28T23:25:26.953Z,88.90
2018-04-28T23:27:54.398Z,88.90
2018-04-28T23:30:21.853Z,89.00
2018-04-28T23:32:49.310Z,88.80
2018-04-28T23:35:16.773Z,89.70
2018-04-28T23:37:44.226Z,90.00
2018-04-28T23:40:11.669Z,89.80
2018-04-28T23:42:39.125Z,89.70
2018-04-28T23:45:06.583Z,89.80
2018-04-28T23:47:34.806Z,89.20
2018-04-28T23:50:02.255Z,89.10
2018-04-28T23:52:29.708Z,89.20
2018-04-28T23:54:57.156Z,87.80
2018-04-28T23:57:24.614Z,88.00
2018-04-28T23:59:52.069Z,89.10
